Aérodrome :
LOGIN :

S'inscrire | Disclaimer

   EN    FR    IT 

 










Légende :    VFR   VFR Marginal   IFR   IFR Intensif   IFR Très Intensif
Visi : 
Plafond : 
>= 8 km
>= 3000ft
5 à 8 km
1000 à 3000 ft
1500m à 5 km
500 à 1000 ft
800 à 1500m
200 à 500 ft
< 800m
< 200 ft
Symboles :   Orages  Brouillard  Fortes neiges  Fortes précipitations  Vent > 20 kt
SIGMETs :   Divers  Orages  Givrage  Turbulence  Onde Orograph.  Cendres Volcan.







- Altitude de l'aérodrome : 11 ft
- Code IATA : MJV


LELC - Murcia San Javier

DERNIER METAR :
  • 160400Z AUTO 08004KT 040V120 8000 BKN011 25/23 Q1013

METARs EXPIRÉS :
  • 160330Z AUTO 07005KT 040V110 8000 BKN013 BKN019 25/23 Q1013
  • 160300Z AUTO 09005KT 050V120 8000 BKN012 25/23 Q1013
  • 160230Z AUTO 09004KT 050V120 8000 SCT011 25/23 Q1013
  • 160200Z AUTO 09004KT 050V130 8000 SCT010 BKN014 25/23 Q1013
  • 160130Z AUTO 09005KT 050V120 7000 SCT009 BKN016 25/23 Q1013
  • 160100Z AUTO 11005KT 080V140 7000 BKN009 BKN013 25/24 Q1013

TAF TAF LELC
Valide du 16 à 00h jusqu'au 17 à 00h UTC


152300Z 1600/1624 09009KT 9999 FEW015 TX33/1615Z TN23/1606Z
PROB40
TEMPO 1602/1607 4000 BR BKN010
Pas de NOTAMs connus pour ce terrain.



MET'MAP, la Météo Aéronautique d'un coup d'oeil ! - Copyright ORBIFLY Décembre 2007 - Disclaimer

ORBIFLY MET'MAP TEAM :

Programmation & Développement : Alexandra Zaïnal
Conception & Développement : Baudouin d'Aumeries
Co-Programmation & Développement : Marc-Olivier Méhu
Soutien technique & logistique : Manuel Goepfert

Contact : metmap@orbifly.com




SOURCES & CREDITS :

   NOAA